Time,TemperatureF,DewpointF,PressureIn,WindDirection,WindDirectionDegrees,WindSpeedMPH,WindSpeedGustMPH,Humidity,HourlyPrecipIn,Conditions,Clouds,dailyrainin,SoftwareType,DateUTC
2013-09-12 00:00:00,64.8,64.8,29.68,ENE,71,0.0,0.0,100,0.00,,,0.00,VWS V14.01,2013-09-12 04:00:00,
2013-09-12 00:10:00,64.8,64.8,29.68,ENE,71,0.0,0.0,100,0.00,,,0.00,VWS V14.01,2013-09-12 04:10:00,
2013-09-12 00:20:00,64.8,64.8,29.68,ENE,71,0.0,0.0,100,0.00,,,0.00,VWS V14.01,2013-09-12 04:20:00,
2013-09-12 00:30:00,64.7,64.7,29.68,ENE,71,0.0,0.0,100,0.00,,,0.00,VWS V14.01,2013-09-12 04:30:00,
2013-09-12 00:40:00,64.7,64.7,29.65,ENE,71,0.0,0.0,100,0.00,,,0.00,VWS V14.01,2013-09-12 04:40:00,
2013-09-12 00:50:00,64.7,64.7,29.65,ENE,71,0.0,0.0,100,0.00,,,0.00,VWS V14.01,2013-09-12 04:50:00,
2013-09-12 01:00:00,64.5,64.5,29.65,ENE,71,0.0,0.0,100,0.00,,,0.00,VWS V14.01,2013-09-12 05:00:00,
2013-09-12 01:10:00,64.5,64.5,29.65,ENE,71,0.0,0.0,100,0.00,,,0.00,VWS V14.01,2013-09-12 05:10:00,
2013-09-12 01:20:00,64.5,64.5,29.65,ENE,71,0.0,0.0,100,0.00,,,0.00,VWS V14.01,2013-09-12 05:20:00,
2013-09-12 01:30:00,64.5,64.5,29.62,ENE,71,0.0,0.0,100,0.00,,,0.00,VWS V14.01,2013-09-12 05:30:00,
2013-09-12 01:40:00,64.5,64.5,29.62,ENE,71,0.0,0.0,100,0.00,,,0.00,VWS V14.01,2013-09-12 05:40:00,
2013-09-12 01:50:00,64.5,64.5,29.62,ENE,71,0.0,0.0,100,0.00,,,0.00,VWS V14.01,2013-09-12 05:50:00,
2013-09-12 02:00:00,64.5,64.5,29.62,ENE,71,0.0,0.0,100,0.00,,,0.00,VWS V14.01,2013-09-12 06:00:00,
2013-09-12 02:10:00,63.8,63.8,29.62,ENE,71,0.0,0.0,100,0.00,,,0.00,VWS V14.01,2013-09-12 06:10:00,
2013-09-12 02:20:00,63.9,63.9,29.62,ENE,71,0.0,0.0,100,0.00,,,0.00,VWS V14.01,2013-09-12 06:20:00,
2013-09-12 02:30:00,63.9,63.9,29.62,ENE,71,0.0,0.0,100,0.00,,,0.00,VWS V14.01,2013-09-12 06:30:00,
2013-09-12 02:40:00,63.9,63.9,29.62,ENE,71,0.0,0.0,100,0.00,,,0.00,VWS V14.01,2013-09-12 06:40:00,
2013-09-12 02:50:00,63.4,63.4,29.62,ENE,71,0.0,0.0,100,0.00,,,0.00,VWS V14.01,2013-09-12 06:50:00,
2013-09-12 03:00:00,63.2,63.2,29.62,ENE,71,0.0,0.0,100,0.00,,,0.00,VWS V14.01,2013-09-12 07:00:00,
2013-09-12 03:10:00,63.4,63.4,29.62,ENE,71,0.0,0.0,100,0.00,,,0.00,VWS V14.01,2013-09-12 07:10:00,
2013-09-12 03:20:00,63.4,63.4,29.62,ENE,71,0.0,0.0,100,0.00,,,0.00,VWS V14.01,2013-09-12 07:20:00,
2013-09-12 03:30:00,63.2,63.2,29.62,ENE,71,0.0,0.0,100,0.00,,,0.00,VWS V14.01,2013-09-12 07:30:00,
2013-09-12 03:40:00,63.2,63.2,29.62,ENE,70,0.0,0.0,100,0.00,,,0.00,VWS V14.01,2013-09-12 07:40:00,
2013-09-12 03:50:00,63.2,63.2,29.62,ENE,71,0.0,0.0,100,0.00,,,0.00,VWS V14.01,2013-09-12 07:50:00,
2013-09-12 04:00:00,63.2,63.2,29.59,ENE,71,0.0,0.0,100,0.00,,,0.00,VWS V14.01,2013-09-12 08:00:00,
2013-09-12 04:10:00,63.4,63.4,29.59,ENE,71,0.0,0.0,100,0.00,,,0.00,VWS V14.01,2013-09-12 08:10:00,
2013-09-12 04:20:00,63.4,63.4,29.59,ENE,71,0.0,0.0,100,0.00,,,0.00,VWS V14.01,2013-09-12 08:20:00,
2013-09-12 04:30:00,63.4,63.4,29.59,ENE,71,0.0,0.0,100,0.00,,,0.00,VWS V14.01,2013-09-12 08:30:00,
2013-09-12 04:40:00,63.6,63.6,29.59,ENE,71,0.0,0.0,100,0.00,,,0.00,VWS V14.01,2013-09-12 08:40:00,
2013-09-12 04:50:00,63.4,63.4,29.59,ENE,71,0.0,0.0,100,0.00,,,0.00,VWS V14.01,2013-09-12 08:50:00,
2013-09-12 05:00:00,63.6,63.6,29.56,ENE,71,0.0,0.0,100,0.00,,,0.00,VWS V14.01,2013-09-12 09:00:00,
2013-09-12 05:10:00,63.6,63.6,29.59,ENE,71,0.0,0.0,100,0.00,,,0.00,VWS V14.01,2013-09-12 09:10:00,
2013-09-12 05:20:00,63.6,63.6,29.59,ENE,71,0.0,0.0,100,0.00,,,0.00,VWS V14.01,2013-09-12 09:20:00,
2013-09-12 05:30:00,63.8,63.8,29.59,ENE,71,0.0,0.0,100,0.00,,,0.00,VWS V14.01,2013-09-12 09:30:00,
2013-09-12 05:40:00,63.8,63.8,29.56,ENE,71,0.0,0.0,100,0.00,,,0.00,VWS V14.01,2013-09-12 09:40:00,
2013-09-12 05:50:00,63.6,63.6,29.56,ENE,71,0.0,0.0,100,0.00,,,0.00,VWS V14.01,2013-09-12 09:50:00,
2013-09-12 06:00:00,63.6,63.6,29.59,ENE,71,0.0,0.0,100,0.00,,,0.00,VWS V14.01,2013-09-12 10:00:00,
2013-09-12 06:10:00,63.6,63.6,29.59,ENE,71,0.0,0.0,100,0.00,,,0.00,VWS V14.01,2013-09-12 10:10:00,
2013-09-12 06:20:00,63.4,63.4,29.59,ENE,70,0.0,0.0,100,0.00,,,0.00,VWS V14.01,2013-09-12 10:20:00,
2013-09-12 06:30:00,63.6,63.6,29.56,ENE,71,0.0,0.0,100,0.00,,,0.00,VWS V14.01,2013-09-12 10:30:00,
2013-09-12 06:40:00,64.8,64.8,29.59,ENE,61,0.0,2.7,100,0.00,,,0.00,VWS V14.01,2013-09-12 10:40:00,
2013-09-12 06:50:00,65.6,65.6,29.59,East,84,0.0,2.2,100,0.00,,,0.00,VWS V14.01,2013-09-12 10:50:00,
2013-09-12 07:00:00,65.6,65.6,29.56,East,84,0.0,0.0,100,0.00,,,0.00,VWS V14.01,2013-09-12 11:00:00,
2013-09-12 07:10:00,66.1,66.1,29.56,ENE,69,0.0,0.0,100,0.00,,,0.00,VWS V14.01,2013-09-12 11:10:00,
2013-09-12 07:20:00,66.3,66.3,29.56,ENE,69,0.0,0.0,100,0.00,,,0.00,VWS V14.01,2013-09-12 11:20:00,
2013-09-12 07:30:00,66.8,66.8,29.56,ENE,78,0.0,0.0,100,0.00,,,0.00,VWS V14.01,2013-09-12 11:30:00,
2013-09-12 07:40:00,67.4,67.4,29.56,ENE,58,0.0,0.0,100,0.00,,,0.00,VWS V14.01,2013-09-12 11:40:00,
2013-09-12 07:50:00,67.5,67.5,29.56,ENE,76,2.7,2.7,100,0.00,,,0.00,VWS V14.01,2013-09-12 11:50:00,
2013-09-12 08:00:00,68.3,68.3,29.56,ENE,76,0.0,2.7,100,0.00,,,0.00,VWS V14.01,2013-09-12 12:00:00,
2013-09-12 08:10:00,68.4,68.4,29.56,NNE,27,0.0,0.0,100,0.00,,,0.00,VWS V14.01,2013-09-12 12:10:00,
2013-09-12 08:20:00,69.2,69.2,29.56,NW,315,0.0,0.0,100,0.00,,,0.00,VWS V14.01,2013-09-12 12:20:00,
2013-09-12 08:30:00,69.7,69.7,29.56,NE,55,0.0,2.7,100,0.00,,,0.00,VWS V14.01,2013-09-12 12:30:00,
2013-09-12 08:40:00,70.1,70.1,29.56,East,95,2.7,4.9,100,0.00,,,0.00,VWS V14.01,2013-09-12 12:40:00,
2013-09-12 08:50:00,72.6,72.6,29.56,East,84,3.1,3.1,100,0.00,,,0.00,VWS V14.01,2013-09-12 12:50:00,
2013-09-12 09:00:00,73.8,73.8,29.56,East,81,4.0,5.4,100,0.00,,,0.00,VWS V14.01,2013-09-12 13:00:00,
2013-09-12 09:10:00,74.2,74.2,29.56,ENE,63,0.0,4.0,100,0.00,,,0.00,VWS V14.01,2013-09-12 13:10:00,
2013-09-12 09:20:00,74.2,74.2,29.56,SE,134,2.2,2.2,100,0.00,,,0.00,VWS V14.01,2013-09-12 13:20:00,
2013-09-12 09:30:00,73.5,73.5,29.56,East,101,4.9,5.8,100,0.00,,,0.00,VWS V14.01,2013-09-12 13:30:00,
2013-09-12 09:40:00,73.5,73.5,29.56,ENE,64,4.0,4.9,100,0.00,,,0.00,VWS V14.01,2013-09-12 13:40:00,
2013-09-12 09:50:00,73.7,73.7,29.59,ENE,65,2.2,4.0,100,0.00,,,0.00,VWS V14.01,2013-09-12 13:50:00,
2013-09-12 10:00:00,73.8,73.8,29.59,SE,143,2.7,3.1,100,0.00,,,0.00,VWS V14.01,2013-09-12 14:00:00,
2013-09-12 10:10:00,75.1,75.1,29.56,ENE,72,2.7,5.8,100,0.00,,,0.00,VWS V14.01,2013-09-12 14:10:00,
2013-09-12 10:20:00,76.5,76.6,29.56,East,85,3.6,4.9,100,0.00,,,0.00,VWS V14.01,2013-09-12 14:20:00,
2013-09-12 10:30:00,77.4,77.4,29.59,East,96,4.0,4.0,100,0.00,,,0.00,VWS V14.01,2013-09-12 14:30:00,
2013-09-12 10:40:00,78.3,78.3,29.59,ENE,59,2.7,4.0,100,0.00,,,0.00,VWS V14.01,2013-09-12 14:40:00,
2013-09-12 10:50:00,78.9,78.9,29.59,ENE,77,4.9,4.9,100,0.00,,,0.00,VWS V14.01,2013-09-12 14:50:00,
2013-09-12 11:00:00,80.1,80.2,29.59,SE,143,0.0,5.8,100,0.00,,,0.00,VWS V14.01,2013-09-12 15:00:00,
2013-09-12 11:10:00,81.8,78.4,29.59,ENE,75,5.8,5.8,90,0.00,,,0.00,VWS V14.01,2013-09-12 15:10:00,
2013-09-12 11:20:00,81.8,78.4,29.59,ENE,69,3.6,5.8,90,0.00,,,0.00,VWS V14.01,2013-09-12 15:20:00,
2013-09-12 11:30:00,81.2,72.9,29.59,East,84,3.6,3.6,76,0.00,,,0.00,VWS V14.01,2013-09-12 15:30:00,
2013-09-12 11:40:00,81.2,73.8,29.59,East,86,4.0,5.4,78,0.00,,,0.00,VWS V14.01,2013-09-12 15:40:00,
2013-09-12 11:50:00,81.2,72.9,29.59,NNE,31,2.7,4.0,76,0.00,,,0.00,VWS V14.01,2013-09-12 15:50:00,
2013-09-12 12:00:00,82.1,76.4,29.59,East,100,2.7,2.7,83,0.00,,,0.00,VWS V14.01,2013-09-12 16:00:00,
2013-09-12 12:10:00,82.5,74.1,29.59,ENE,76,4.0,8.1,76,0.00,,,0.00,VWS V14.01,2013-09-12 16:10:00,
2013-09-12 12:20:00,82.5,74.1,29.59,East,87,2.7,5.8,76,0.00,,,0.00,VWS V14.01,2013-09-12 16:20:00,
2013-09-12 12:30:00,85.0,71.7,29.59,NNE,19,7.6,7.6,64,0.00,,,0.00,VWS V14.01,2013-09-12 16:30:00,
2013-09-12 12:40:00,85.7,69.0,29.59,ENE,76,8.3,8.3,58,0.00,,,0.00,VWS V14.01,2013-09-12 16:40:00,
2013-09-12 12:50:00,87.0,65.1,29.59,ENE,67,2.7,8.3,48,0.00,,,0.00,VWS V14.01,2013-09-12 16:50:00,
2013-09-12 13:00:00,87.0,65.1,29.59,ENE,63,3.6,3.6,48,0.00,,,0.00,VWS V14.01,2013-09-12 17:00:00,
2013-09-12 13:10:00,87.2,67.9,29.59,ENE,78,2.7,5.4,53,0.00,,,0.00,VWS V14.01,2013-09-12 17:10:00,
2013-09-12 13:20:00,86.8,66.3,29.59,ENE,62,3.1,6.3,51,0.00,,,0.00,VWS V14.01,2013-09-12 17:20:00,
2013-09-12 13:30:00,88.4,66.4,29.59,ENE,70,6.3,6.3,48,0.00,,,0.00,VWS V14.01,2013-09-12 17:30:00,
2013-09-12 13:40:00,88.6,65.2,29.59,NNE,31,3.1,6.3,46,0.00,,,0.00,VWS V14.01,2013-09-12 17:40:00,
2013-09-12 13:50:00,89.3,65.8,29.59,East,97,3.1,5.4,46,0.00,,,0.00,VWS V14.01,2013-09-12 17:50:00,
2013-09-12 14:00:00,89.1,64.2,29.59,WNW,288,4.0,4.9,44,0.00,,,0.00,VWS V14.01,2013-09-12 18:00:00,
2013-09-12 14:10:00,89.1,64.2,29.59,East,85,3.6,4.0,44,0.00,,,0.00,VWS V14.01,2013-09-12 18:10:00,
2013-09-12 14:20:00,89.1,64.2,29.59,ENE,77,3.6,5.4,44,0.00,,,0.00,VWS V14.01,2013-09-12 18:20:00,
2013-09-12 14:30:00,89.0,64.1,29.56,ENE,73,6.3,8.1,44,0.00,,,0.00,VWS V14.01,2013-09-12 18:30:00,
2013-09-12 14:40:00,88.8,65.3,29.56,East,97,3.6,6.3,46,0.00,,,0.00,VWS V14.01,2013-09-12 18:40:00,
2013-09-12 14:50:00,88.4,66.4,29.56,NE,56,3.1,3.6,48,0.00,,,0.00,VWS V14.01,2013-09-12 18:50:00,
2013-09-12 15:00:00,88.8,68.1,29.56,NE,56,3.1,8.1,51,0.00,,,0.00,VWS V14.01,2013-09-12 19:00:00,
2013-09-12 15:10:00,88.8,66.8,29.56,ENE,74,4.0,4.9,48,0.00,,,0.00,VWS V14.01,2013-09-12 19:10:00,
2013-09-12 15:20:00,88.1,66.1,29.56,WSW,243,2.2,4.0,48,0.00,,,0.00,VWS V14.01,2013-09-12 19:20:00,
2013-09-12 15:30:00,88.8,66.8,29.56,ENE,68,5.8,5.8,48,0.00,,,0.00,VWS V14.01,2013-09-12 19:30:00,
2013-09-12 15:40:00,88.8,66.8,29.56,ENE,68,3.1,5.8,48,0.00,,,0.00,VWS V14.01,2013-09-12 19:40:00,
2013-09-12 15:50:00,89.5,66.0,29.56,ESE,109,3.1,4.0,46,0.00,,,0.00,VWS V14.01,2013-09-12 19:50:00,
2013-09-12 16:00:00,90.0,65.0,29.56,NE,47,3.6,4.9,44,0.00,,,0.00,VWS V14.01,2013-09-12 20:00:00,
2013-09-12 16:10:00,89.0,65.5,29.56,ENE,65,3.6,3.6,46,0.00,,,0.00,VWS V14.01,2013-09-12 20:10:00,
2013-09-12 16:20:00,89.0,65.5,29.56,NE,50,3.1,4.0,46,0.00,,,0.00,VWS V14.01,2013-09-12 20:20:00,
2013-09-12 16:30:00,88.4,66.4,29.56,ESE,116,2.2,3.1,48,0.00,,,0.00,VWS V14.01,2013-09-12 20:30:00,
2013-09-12 16:40:00,88.6,67.9,29.56,NNE,14,3.6,5.4,51,0.00,,,0.00,VWS V14.01,2013-09-12 20:40:00,
2013-09-12 16:50:00,87.5,69.5,29.56,ENE,69,3.1,4.0,55,0.00,,,0.00,VWS V14.01,2013-09-12 20:50:00,
2013-09-12 17:00:00,87.2,73.7,29.53,NE,56,0.0,3.1,64,0.00,,,0.00,VWS V14.01,2013-09-12 21:00:00,
2013-09-12 17:10:00,87.2,73.7,29.53,ENE,67,2.7,4.0,64,0.00,,,0.00,VWS V14.01,2013-09-12 21:10:00,
2013-09-12 17:20:00,85.4,73.0,29.53,ENE,67,0.0,2.7,67,0.00,,,0.00,VWS V14.01,2013-09-12 21:20:00,
2013-09-12 17:30:00,85.0,73.7,29.53,ENE,63,2.7,3.1,69,0.00,,,0.00,VWS V14.01,2013-09-12 21:30:00,
2013-09-12 17:40:00,84.1,74.8,29.53,NE,35,2.7,2.7,74,0.00,,,0.00,VWS V14.01,2013-09-12 21:40:00,
2013-09-12 17:50:00,83.7,76.2,29.53,ESE,104,0.0,2.7,78,0.00,,,0.00,VWS V14.01,2013-09-12 21:50:00,
2013-09-12 18:00:00,83.7,76.2,29.53,SSE,147,3.1,3.1,78,0.00,,,0.00,VWS V14.01,2013-09-12 22:00:00,
2013-09-12 18:10:00,82.3,73.9,29.53,West,277,2.7,3.1,76,0.00,,,0.00,VWS V14.01,2013-09-12 22:10:00,
2013-09-12 18:20:00,81.4,73.1,29.53,East,80,2.7,2.7,76,0.00,,,0.00,VWS V14.01,2013-09-12 22:20:00,
2013-09-12 18:30:00,80.5,73.1,29.53,East,86,0.0,3.1,78,0.00,,,0.00,VWS V14.01,2013-09-12 22:30:00,
2013-09-12 18:40:00,80.0,73.4,29.53,East,84,0.0,0.0,80,0.00,,,0.00,VWS V14.01,2013-09-12 22:40:00,
2013-09-12 18:50:00,80.0,74.3,29.53,SE,131,0.0,0.0,83,0.00,,,0.00,VWS V14.01,2013-09-12 22:50:00,
2013-09-12 19:00:00,79.6,75.5,29.53,SE,131,0.0,0.0,87,0.00,,,0.00,VWS V14.01,2013-09-12 23:00:00,
2013-09-12 19:10:00,79.6,77.1,29.53,SE,131,0.0,0.0,92,0.00,,,0.00,VWS V14.01,2013-09-12 23:10:00,
2013-09-12 19:20:00,79.4,77.6,29.53,SE,131,0.0,0.0,94,0.00,,,0.00,VWS V14.01,2013-09-12 23:20:00,
2013-09-12 19:30:00,78.5,77.5,29.53,SE,131,0.0,0.0,97,0.00,,,0.00,VWS V14.01,2013-09-12 23:30:00,
2013-09-12 19:40:00,77.1,77.1,29.53,SE,131,0.0,0.0,100,0.00,,,0.00,VWS V14.01,2013-09-12 23:40:00,
2013-09-12 19:50:00,76.0,76.0,29.53,SE,131,0.0,0.0,100,0.00,,,0.00,VWS V14.01,2013-09-12 23:50:00,
2013-09-12 20:00:00,74.7,74.8,29.53,SE,131,0.0,0.0,100,0.00,,,0.00,VWS V14.01,2013-09-13 00:00:00,
2013-09-12 20:10:00,74.0,74.0,29.50,SE,131,0.0,0.0,100,0.00,,,0.00,VWS V14.01,2013-09-13 00:10:00,
2013-09-12 20:20:00,73.3,73.3,29.50,SE,131,0.0,0.0,100,0.00,,,0.00,VWS V14.01,2013-09-13 00:20:00,
2013-09-12 20:30:00,72.6,72.6,29.50,SE,131,0.0,0.0,100,0.00,,,0.00,VWS V14.01,2013-09-13 00:30:00,
2013-09-12 20:40:00,72.4,72.4,29.50,SE,131,0.0,0.0,100,0.00,,,0.00,VWS V14.01,2013-09-13 00:40:00,
2013-09-12 20:50:00,71.9,71.9,29.50,SE,131,0.0,0.0,100,0.00,,,0.00,VWS V14.01,2013-09-13 00:50:00,
2013-09-12 21:00:00,71.5,71.5,29.50,SE,131,0.0,0.0,100,0.00,,,0.00,VWS V14.01,2013-09-13 01:00:00,
2013-09-12 21:10:00,71.1,71.1,29.50,SE,131,0.0,0.0,100,0.00,,,0.00,VWS V14.01,2013-09-13 01:10:00,
2013-09-12 21:20:00,71.0,71.0,29.50,SE,131,0.0,0.0,100,0.00,,,0.00,VWS V14.01,2013-09-13 01:20:00,
2013-09-12 21:30:00,70.8,70.8,29.53,SE,131,0.0,0.0,100,0.00,,,0.00,VWS V14.01,2013-09-13 01:30:00,
2013-09-12 21:40:00,70.4,70.4,29.50,SE,131,0.0,0.0,100,0.00,,,0.00,VWS V14.01,2013-09-13 01:40:00,
2013-09-12 21:50:00,70.2,70.2,29.50,SE,131,0.0,0.0,100,0.00,,,0.00,VWS V14.01,2013-09-13 01:50:00,
2013-09-12 22:00:00,69.9,69.9,29.50,SE,131,0.0,0.0,100,0.00,,,0.00,VWS V14.01,2013-09-13 02:00:00,
2013-09-12 22:10:00,69.7,69.7,29.50,SE,131,0.0,0.0,100,0.00,,,0.00,VWS V14.01,2013-09-13 02:10:00,
2013-09-12 22:20:00,69.9,69.9,29.50,SE,131,0.0,0.0,100,0.00,,,0.00,VWS V14.01,2013-09-13 02:20:00,
2013-09-12 22:30:00,69.7,69.7,29.50,SE,131,0.0,0.0,100,0.00,,,0.00,VWS V14.01,2013-09-13 02:30:00,
2013-09-12 22:40:00,69.7,69.7,29.50,SE,131,0.0,0.0,100,0.00,,,0.00,VWS V14.01,2013-09-13 02:40:00,
2013-09-12 22:50:00,69.5,69.5,29.50,SE,131,0.0,0.0,100,0.00,,,0.00,VWS V14.01,2013-09-13 02:50:00,
2013-09-12 23:00:00,69.3,69.3,29.50,SE,131,0.0,0.0,100,0.00,,,0.00,VWS V14.01,2013-09-13 03:00:00,
2013-09-12 23:10:00,69.3,69.3,29.50,SE,131,0.0,0.0,100,0.00,,,0.00,VWS V14.01,2013-09-13 03:10:00,
2013-09-12 23:20:00,69.5,69.5,29.50,SE,131,0.0,0.0,100,0.00,,,0.00,VWS V14.01,2013-09-13 03:20:00,
2013-09-12 23:30:00,69.5,69.5,29.50,SE,131,0.0,0.0,100,0.00,,,0.00,VWS V14.01,2013-09-13 03:30:00,
2013-09-12 23:40:00,69.5,69.5,29.50,SE,131,0.0,0.0,100,0.00,,,0.00,VWS V14.01,2013-09-13 03:40:00,
2013-09-12 23:50:00,69.5,69.5,29.50,SE,131,0.0,0.0,100,0.00,,,0.00,VWS V14.01,2013-09-13 03:50:00,